Time;durP1;ratioP1;P1;durP2;ratioP2;P2;SDS_P1;SDS_P2;PMS_P1;PMS_P2;Temp;Humidity;BMP_temperature;BMP_pressure;BME280_temperature;BME280_humidity;BME280_pressure;Samples;Min_cycle;Max_cycle;Signal;HPM_P1;HPM_P2
2021/09/17 00:00:00;;;;;;;4.20;3.00;;;17.90;99.90;;;;;;5075217;28;20510;-85
2021/09/17 00:02:31;;;;;;;2.63;2.43;;;;;;;;;;5067234;28;20459;-85
2021/09/17 00:05:38;;;;;;;2.13;1.93;;;16.50;99.90;;;;;;5065036;28;20446;-85
2021/09/17 00:08:05;;;;;;;4.43;3.13;;;16.40;99.90;;;;;;5062617;28;20478;-85
2021/09/17 00:10:32;;;;;;;2.70;2.50;;;16.40;99.90;;;;;;5063204;28;20458;-85
2021/09/17 00:12:58;;;;;;;7.87;2.33;;;16.40;99.90;;;;;;5058973;28;20510;-85
2021/09/17 00:15:26;;;;;;;7.43;2.57;;;16.30;99.90;;;;;;5058588;28;20461;-86
2021/09/17 00:17:53;;;;;;;2.80;2.50;;;16.30;99.90;;;;;;5055925;28;20951;-85
2021/09/17 00:20:20;;;;;;;3.80;2.40;;;14.90;99.90;;;;;;5056254;28;20868;-85
2021/09/17 00:22:48;;;;;;;5.90;2.83;;;16.40;99.90;;;;;;5055389;28;20830;-85
2021/09/17 00:25:15;;;;;;;4.23;2.73;;;;;;;;;;5055995;28;20454;-85
2021/09/17 00:27:41;;;;;;;3.10;2.80;;;16.40;99.90;;;;;;5055778;28;20476;-86
2021/09/17 00:30:09;;;;;;;3.93;2.60;;;17.70;99.90;;;;;;5055852;28;20504;-85
2021/09/17 00:32:37;;;;;;;3.60;2.70;;;16.40;99.90;;;;;;5055787;28;20481;-85
2021/09/17 00:35:04;;;;;;;3.37;2.10;;;15.30;99.90;;;;;;5055500;28;20442;-86
2021/09/17 00:37:31;;;;;;;3.83;2.73;;;16.40;99.90;;;;;;5055843;28;20466;-86
2021/09/17 00:39:57;;;;;;;5.30;2.43;;;15.90;99.90;;;;;;5055061;28;20435;-86
2021/09/17 00:42:24;;;;;;;3.77;2.80;;;15.90;99.90;;;;;;5054216;28;20931;-86
2021/09/17 00:45:00;;;;;;;3.10;2.80;;;16.30;99.90;;;;;;5055239;28;20438;-86
2021/09/17 00:47:27;;;;;;;2.70;2.50;;;17.30;99.90;;;;;;5055990;28;21052;-86
2021/09/17 00:49:55;;;;;;;2.87;2.63;;;16.20;99.90;;;;;;5069754;28;20434;-86
2021/09/17 00:52:21;;;;;;;2.60;2.40;;;16.70;99.90;;;;;;5077688;28;20497;-86
2021/09/17 00:54:48;;;;;;;5.97;2.63;;;;;;;;;;5062222;28;20478;-86
2021/09/17 00:57:15;;;;;;;4.43;2.50;;;16.40;99.90;;;;;;5057857;28;20501;-86
2021/09/17 00:59:42;;;;;;;2.80;2.07;;;16.10;99.90;;;;;;5055473;28;20553;-86
2021/09/17 01:02:09;;;;;;;4.37;2.70;;;15.80;99.90;;;;;;5055500;28;20519;-86
2021/09/17 01:04:35;;;;;;;4.97;2.77;;;16.10;99.90;;;;;;5055108;28;20438;-86
2021/09/17 01:07:04;;;;;;;2.67;2.47;;;16.40;99.90;;;;;;5057114;28;20485;-86
2021/09/17 01:09:31;;;;;;;2.83;2.63;;;16.30;99.90;;;;;;5060846;28;20870;-86
2021/09/17 01:12:03;;;;;;;4.47;2.50;;;16.20;99.90;;;;;;5053702;28;20454;-86
2021/09/17 01:14:30;;;;;;;3.43;3.00;;;16.00;99.90;;;;;;5054339;28;20470;-86
2021/09/17 01:16:56;;;;;;;3.90;2.37;;;16.00;99.90;;;;;;5056273;28;20500;-86
2021/09/17 01:19:23;;;;;;;4.60;2.50;;;16.20;99.90;;;;;;5055715;28;20943;-86
2021/09/17 01:21:57;;;;;;;5.03;2.03;;;16.30;99.90;;;;;;5054130;28;20445;-86
2021/09/17 01:24:23;;;;;;;3.30;2.33;;;16.10;99.90;;;;;;5054716;28;20454;-86
2021/09/17 01:26:50;;;;;;;2.83;2.27;;;16.30;99.90;;;;;;5054625;28;20523;-86
2021/09/17 01:29:17;;;;;;;2.20;2.00;;;17.20;99.90;;;;;;5054734;28;20450;-86
2021/09/17 01:31:43;;;;;;;2.47;2.27;;;16.20;99.90;;;;;;5055189;28;20454;-86
2021/09/17 01:34:11;;;;;;;4.03;2.47;;;;;;;;;;5063188;28;20484;-86
2021/09/17 01:36:37;;;;;;;2.43;2.23;;;16.30;99.90;;;;;;5077245;28;20465;-85
2021/09/17 01:39:05;;;;;;;4.73;2.23;;;16.20;99.90;;;;;;5067939;28;20446;-86
2021/09/17 01:41:32;;;;;;;7.10;2.40;;;16.10;99.90;;;;;;5058225;28;20450;-86
2021/09/17 01:43:58;;;;;;;3.33;2.40;;;16.00;99.90;;;;;;5066634;28;20453;-86
2021/09/17 01:46:25;;;;;;;2.77;2.07;;;16.20;99.90;;;;;;5068591;28;20474;-86
2021/09/17 01:48:52;;;;;;;4.90;2.30;;;16.00;99.90;;;;;;5057663;28;20438;-86
2021/09/17 01:51:18;;;;;;;3.03;2.30;;;16.00;99.90;;;;;;5054996;28;20478;-86
2021/09/17 01:53:45;;;;;;;2.17;1.97;;;16.20;99.90;;;;;;5054853;28;20482;-86
2021/09/17 01:56:14;;;;;;;5.40;2.30;;;15.70;99.90;;;;;;5055962;28;20470;-86
2021/09/17 01:58:41;;;;;;;2.70;2.50;;;16.10;99.90;;;;;;5055814;28;20454;-85
2021/09/17 02:01:07;;;;;;;3.73;2.53;;;16.20;99.90;;;;;;5055809;28;20958;-85
2021/09/17 02:03:34;;;;;;;5.03;3.30;;;16.20;99.90;;;;;;5055841;28;20454;-84
2021/09/17 02:06:01;;;;;;;4.70;2.10;;;15.20;99.90;;;;;;5055572;28;20458;-85
2021/09/17 02:08:27;;;;;;;5.80;2.30;;;16.00;99.90;;;;;;5055063;28;20446;-85
2021/09/17 02:10:54;;;;;;;3.10;2.80;;;15.60;99.90;;;;;;5066139;28;20462;-85
2021/09/17 02:13:22;;;;;;;3.40;2.60;;;16.00;99.90;;;;;;5067078;28;20515;-85
2021/09/17 02:15:49;;;;;;;2.40;2.30;;;15.80;99.90;;;;;;5062397;28;20449;-86
2021/09/17 02:18:16;;;;;;;3.13;1.90;;;16.20;99.90;;;;;;5058626;28;20499;-85
2021/09/17 02:20:43;;;;;;;3.70;2.80;;;15.90;99.90;;;;;;5075369;28;20487;-85
2021/09/17 02:23:09;;;;;;;4.77;2.57;;;16.20;99.90;;;;;;5069771;28;20430;-86
2021/09/17 02:25:36;;;;;;;2.70;2.23;;;16.20;99.90;;;;;;5059643;28;20442;-86
2021/09/17 02:28:06;;;;;;;4.37;1.90;;;16.00;99.90;;;;;;5057631;28;20528;-86
2021/09/17 02:30:37;;;;;;;5.70;2.90;;;14.60;99.90;;;;;;5064704;28;20457;-86
2021/09/17 02:33:07;;;;;;;2.80;2.60;;;;;;;;;;5078378;28;20446;-86
2021/09/17 02:35:35;;;;;;;3.07;2.17;;;;;;;;;;5079072;28;20498;-86
2021/09/17 02:38:07;;;;;;;8.03;2.90;;;;;;;;;;5071822;28;20533;-86
2021/09/17 02:43:44;;;;;;;3.63;2.43;;;16.10;99.90;;;;;;5076510;28;20509;-85
2021/09/17 02:46:12;;;;;;;4.50;3.10;;;16.00;99.90;;;;;;5078034;28;20471;-85
2021/09/17 02:48:40;;;;;;;6.67;2.50;;;;;;;;;;5060815;28;20451;-86
2021/09/17 02:51:07;;;;;;;3.10;2.90;;;;;;;;;;5058935;28;20791;-86
2021/09/17 02:53:34;;;;;;;4.33;2.30;;;16.10;99.90;;;;;;5060725;28;20524;-85
2021/09/17 02:56:00;;;;;;;3.33;2.60;;;16.10;99.90;;;;;;5061139;28;20496;-86
2021/09/17 02:58:27;;;;;;;4.07;2.43;;;16.10;99.90;;;;;;5058620;28;20470;-86
2021/09/17 03:00:54;;;;;;;2.70;1.90;;;15.80;99.90;;;;;;5058503;28;20450;-86
2021/09/17 03:03:22;;;;;;;3.63;2.00;;;16.10;99.90;;;;;;5058201;28;20449;-86
2021/09/17 03:05:49;;;;;;;5.27;2.10;;;15.80;99.90;;;;;;5057472;28;20477;-86
2021/09/17 03:08:17;;;;;;;3.40;2.50;;;;;;;;;;5058957;28;20450;-86
2021/09/17 03:11:02;;;;;;;2.40;2.10;;;16.10;99.90;;;;;;5059799;28;20805;-86
2021/09/17 03:13:47;;;;;;;6.90;4.20;;;16.10;99.90;;;;;;5057430;28;20450;-85
2021/09/17 03:16:21;;;;;;;4.50;2.90;;;16.10;99.90;;;;;;5060404;28;20989;-85
2021/09/17 03:18:49;;;;;;;2.17;1.97;;;16.00;99.90;;;;;;5060707;28;20526;-85
2021/09/17 03:21:16;;;;;;;5.20;2.20;;;16.00;99.90;;;;;;5059295;28;20477;-85
2021/09/17 03:23:43;;;;;;;2.27;2.10;;;15.90;99.90;;;;;;5059795;28;21020;-85
2021/09/17 03:26:09;;;;;;;4.53;3.03;;;15.90;99.90;;;;;;5059936;28;20470;-85
2021/09/17 03:28:36;;;;;;;13.83;9.93;;;15.70;99.90;;;;;;5059569;28;20477;-86
2021/09/17 03:31:03;;;;;;;5.10;3.03;;;;;;;;;;5059481;28;20484;-86
2021/09/17 03:33:29;;;;;;;4.93;2.43;;;15.90;99.90;;;;;;5058573;28;20484;-85
2021/09/17 03:35:58;;;;;;;3.60;2.27;;;15.30;99.90;;;;;;5058552;28;20433;-86
2021/09/17 03:38:24;;;;;;;2.83;2.50;;;14.80;99.90;;;;;;5058842;28;20446;-86
2021/09/17 03:40:51;;;;;;;2.87;2.57;;;;;;;;;;5057729;28;20445;-86
2021/09/17 03:43:18;;;;;;;3.03;2.83;;;15.80;99.90;;;;;;5058590;28;20972;-86
2021/09/17 03:45:45;;;;;;;2.77;2.57;;;15.10;99.90;;;;;;5061518;28;20454;-86
2021/09/17 03:48:13;;;;;;;7.40;2.50;;;15.50;99.90;;;;;;5059200;28;20434;-86
2021/09/17 03:50:40;;;;;;;4.43;2.50;;;15.50;99.90;;;;;;5059010;28;20512;-86
2021/09/17 03:53:09;;;;;;;8.47;3.10;;;15.70;99.90;;;;;;5058601;28;20500;-86
2021/09/17 03:55:35;;;;;;;5.93;4.13;;;15.50;99.90;;;;;;5058295;28;20482;-86
2021/09/17 03:58:03;;;;;;;2.40;2.20;;;15.60;99.90;;;;;;5058961;28;20466;-87
2021/09/17 04:00:29;;;;;;;4.43;2.67;;;;;;;;;;5058233;28;20514;-86
2021/09/17 04:02:56;;;;;;;4.03;3.10;;;15.70;99.90;;;;;;5057598;28;20450;-86
2021/09/17 04:05:25;;;;;;;2.83;2.43;;;15.90;99.90;;;;;;5059943;28;20442;-86
2021/09/17 04:10:28;;;;;;;2.10;1.90;;;15.70;99.90;;;;;;5521029;23;20487;-86
2021/09/17 04:12:55;;;;;;;3.13;1.73;;;;;;;;;;5078085;28;20438;-86
2021/09/17 04:15:22;;;;;;;1.90;1.70;;;15.70;99.90;;;;;;5085308;28;20530;-85
2021/09/17 04:17:49;;;;;;;3.73;2.90;;;14.70;99.90;;;;;;5059816;28;20466;-86
2021/09/17 04:20:15;;;;;;;3.13;2.53;;;16.90;99.90;;;;;;5057274;28;20450;-85
2021/09/17 04:22:42;;;;;;;4.13;2.13;;;15.60;99.90;;;;;;5058061;28;20446;-85
2021/09/17 04:25:10;;;;;;;3.53;2.40;;;15.10;99.90;;;;;;5106186;23;20477;-87
2021/09/17 04:27:39;;;;;;;2.20;2.00;;;15.30;99.90;;;;;;5095392;28;20468;-87
2021/09/17 04:30:08;;;;;;;1.73;1.37;;;15.10;99.90;;;;;;5095223;28;20446;-87
2021/09/17 04:32:35;;;;;;;2.17;2.07;;;15.00;99.90;;;;;;5096657;28;20452;-88
2021/09/17 04:35:02;;;;;;;1.73;1.63;;;15.00;99.90;;;;;;5083390;28;20490;-87
2021/09/17 04:37:29;;;;;;;2.07;1.60;;;14.90;99.90;;;;;;5075040;28;20446;-87
2021/09/17 04:39:56;;;;;;;4.13;1.90;;;14.90;99.90;;;;;;5070865;28;20445;-87
2021/09/17 04:42:22;;;;;;;2.50;2.30;;;14.50;99.90;;;;;;5070355;28;20496;-87
2021/09/17 04:44:50;;;;;;;3.00;2.20;;;14.80;99.90;;;;;;5070633;28;20458;-87
2021/09/17 04:47:17;;;;;;;3.70;2.40;;;14.70;99.90;;;;;;5073592;28;20469;-87
2021/09/17 04:49:43;;;;;;;3.20;1.70;;;14.10;99.90;;;;;;5070245;28;20447;-87
2021/09/17 04:52:10;;;;;;;1.77;1.67;;;15.10;99.90;;;;;;5067722;28;20482;-87
2021/09/17 04:54:38;;;;;;;3.57;2.23;;;15.10;99.90;;;;;;5062597;28;20478;-87
2021/09/17 04:57:05;;;;;;;2.03;1.63;;;14.20;99.90;;;;;;5062934;28;20450;-87
2021/09/17 04:59:32;;;;;;;3.23;1.87;;;15.30;99.90;;;;;;5065427;28;20453;-88
2021/09/17 05:02:00;;;;;;;3.13;1.90;;;15.10;99.90;;;;;;5058756;28;20985;-87
2021/09/17 05:04:26;;;;;;;1.47;1.37;;;15.20;99.90;;;;;;5058159;28;20535;-87
2021/09/17 05:06:54;;;;;;;3.27;2.20;;;14.80;99.90;;;;;;5059238;28;20449;-87
2021/09/17 05:09:21;;;;;;;2.73;1.80;;;15.40;99.90;;;;;;5060996;28;20484;-86
2021/09/17 05:11:47;;;;;;;2.70;2.50;;;14.60;99.90;;;;;;5069385;28;20487;-86
2021/09/17 05:14:14;;;;;;;3.87;1.60;;;15.40;99.90;;;;;;5070095;28;20473;-87
2021/09/17 05:16:44;;;;;;;3.77;2.37;;;15.00;99.90;;;;;;5072134;28;20454;-87
2021/09/17 05:19:12;;;;;;;2.13;1.57;;;15.20;99.90;;;;;;5062323;28;20434;-88
2021/09/17 05:21:39;;;;;;;3.10;1.87;;;15.30;99.90;;;;;;5062140;28;20477;-88
2021/09/17 05:24:06;;;;;;;4.90;1.70;;;15.30;99.90;;;;;;5060639;28;20466;-88
2021/09/17 05:26:32;;;;;;;1.87;1.67;;;15.40;99.90;;;;;;5059119;28;20450;-88
2021/09/17 05:28:59;;;;;;;2.57;2.47;;;15.30;99.90;;;;;;5059433;28;20446;-87
2021/09/17 05:31:25;;;;;;;3.63;1.30;;;15.40;99.90;;;;;;5059589;28;20472;-86
2021/09/17 05:33:52;;;;;;;3.00;1.20;;;15.30;99.90;;;;;;5057844;28;20449;-87
2021/09/17 05:36:20;;;;;;;1.53;1.10;;;15.20;99.90;;;;;;5057018;28;20485;-87
2021/09/17 05:38:47;;;;;;;1.23;0.87;;;15.30;99.90;;;;;;5057927;28;20811;-87
2021/09/17 05:41:14;;;;;;;1.20;1.10;;;15.20;99.90;;;;;;5057529;28;20504;-87
2021/09/17 05:43:41;;;;;;;1.87;1.23;;;15.10;99.90;;;;;;5067984;28;20465;-87
2021/09/17 05:46:08;;;;;;;4.53;1.03;;;15.40;99.90;;;;;;5077341;28;20473;-87
2021/09/17 05:48:34;;;;;;;2.07;0.87;;;15.10;99.90;;;;;;5080731;28;20434;-88
2021/09/17 05:51:01;;;;;;;1.97;1.10;;;15.40;99.90;;;;;;5081812;28;20404;-87
2021/09/17 05:53:29;;;;;;;2.30;1.13;;;15.50;99.90;;;;;;5070012;28;20446;-86
2021/09/17 05:55:55;;;;;;;2.30;1.00;;;15.30;99.90;;;;;;5065429;28;20485;-87
2021/09/17 05:58:27;;;;;;;2.17;1.10;;;15.30;99.90;;;;;;5077687;28;20476;-86
2021/09/17 06:00:54;;;;;;;3.67;1.30;;;15.20;99.90;;;;;;5078119;28;20441;-86
2021/09/17 06:03:21;;;;;;;1.37;0.97;;;15.10;99.90;;;;;;5064104;28;20481;-87
2021/09/17 06:05:48;;;;;;;1.00;0.90;;;15.60;99.90;;;;;;5062187;28;20473;-88
2021/09/17 06:08:14;;;;;;;1.10;0.83;;;15.40;99.90;;;;;;5060738;28;20785;-87
2021/09/17 06:10:42;;;;;;;1.20;1.03;;;15.40;99.90;;;;;;5063579;28;20478;-87
2021/09/17 06:13:09;;;;;;;1.00;0.90;;;14.90;99.90;;;;;;5061444;28;20454;-87
2021/09/17 06:15:35;;;;;;;1.30;0.80;;;15.40;99.90;;;;;;5063066;28;20512;-87
2021/09/17 06:18:02;;;;;;;2.20;1.20;;;15.50;99.90;;;;;;5064617;28;20450;-87
2021/09/17 06:20:29;;;;;;;1.63;0.80;;;15.30;99.90;;;;;;5061439;28;20458;-87
2021/09/17 06:22:55;;;;;;;3.63;1.40;;;15.40;99.90;;;;;;5060220;28;20488;-88
2021/09/17 06:25:23;;;;;;;3.17;2.00;;;14.80;99.90;;;;;;5060397;28;20516;-88
2021/09/17 06:27:51;;;;;;;1.07;0.90;;;15.30;99.90;;;;;;5060304;28;20469;-88
2021/09/17 06:30:20;;;;;;;1.43;1.10;;;15.20;99.90;;;;;;5062238;28;20446;-87
2021/09/17 06:32:47;;;;;;;1.47;1.37;;;15.30;99.90;;;;;;5062340;28;20454;-87
2021/09/17 06:35:14;;;;;;;3.57;0.97;;;15.20;99.90;;;;;;5058412;28;21071;-88
2021/09/17 06:37:45;;;;;;;1.13;0.90;;;15.40;99.90;;;;;;5058673;28;20450;-88
2021/09/17 06:40:13;;;;;;;2.03;1.10;;;15.30;99.90;;;;;;5058231;28;20457;-87
2021/09/17 06:42:39;;;;;;;1.77;0.90;;;15.30;99.90;;;;;;5058159;28;20451;-88
2021/09/17 06:45:09;;;;;;;2.03;0.87;;;15.20;99.90;;;;;;5058177;28;20493;-87
2021/09/17 06:47:43;;;;;;;0.90;0.70;;;15.20;99.90;;;;;;5058950;28;20477;-87
2021/09/17 06:50:10;;;;;;;6.83;1.37;;;15.50;99.90;;;;;;5058082;28;20434;-87
2021/09/17 06:52:37;;;;;;;0.90;0.80;;;15.50;99.90;;;;;;5058214;28;20450;-87
2021/09/17 06:55:04;;;;;;;1.60;0.87;;;15.50;99.90;;;;;;5058153;28;20475;-87
2021/09/17 06:57:31;;;;;;;0.90;0.70;;;15.50;99.90;;;;;;5057392;28;20882;-87
2021/09/17 06:59:58;;;;;;;1.87;0.90;;;15.50;99.90;;;;;;5059913;28;20993;-87
2021/09/17 07:02:26;;;;;;;1.13;1.03;;;15.60;99.90;;;;;;5064366;28;20806;-87
2021/09/17 07:04:52;;;;;;;1.57;0.90;;;15.60;99.90;;;;;;5067884;28;20466;-87
2021/09/17 07:07:19;;;;;;;2.80;1.00;;;15.50;99.90;;;;;;5059877;28;20508;-87
2021/09/17 07:09:45;;;;;;;1.73;1.00;;;15.50;99.90;;;;;;5058311;28;20550;-87
2021/09/17 07:12:12;;;;;;;1.27;1.00;;;15.50;99.90;;;;;;5058030;28;20950;-88
2021/09/17 07:14:38;;;;;;;3.87;2.20;;;15.50;99.90;;;;;;5057721;28;20490;-88
2021/09/17 07:17:05;;;;;;;1.00;0.87;;;15.60;99.90;;;;;;5058056;28;20504;-88
2021/09/17 07:19:33;;;;;;;1.10;1.00;;;15.70;99.90;;;;;;5058317;28;20432;-88
2021/09/17 07:22:01;;;;;;;1.20;1.10;;;15.60;99.90;;;;;;5059260;28;20417;-87
2021/09/17 07:24:27;;;;;;;0.97;0.70;;;15.60;99.90;;;;;;5066809;28;20497;-87
2021/09/17 07:26:54;;;;;;;3.33;1.77;;;15.20;99.90;;;;;;5073609;28;20409;-86
2021/09/17 07:29:21;;;;;;;6.40;0.90;;;15.80;99.90;;;;;;5072995;28;20438;-87
2021/09/17 07:31:47;;;;;;;1.53;1.20;;;15.90;99.90;;;;;;5071901;28;20442;-87
2021/09/17 07:34:14;;;;;;;2.00;1.00;;;15.90;99.90;;;;;;5073547;28;20501;-86
2021/09/17 07:36:42;;;;;;;1.10;0.80;;;15.90;99.90;;;;;;5064753;28;20528;-86
2021/09/17 07:39:09;;;;;;;2.67;1.00;;;15.50;99.90;;;;;;5058693;28;20454;-87
2021/09/17 07:41:36;;;;;;;1.97;0.97;;;15.70;99.90;;;;;;5062568;28;20450;-87
2021/09/17 07:44:03;;;;;;;2.60;1.03;;;15.80;99.90;;;;;;5060468;28;20962;-87
2021/09/17 07:46:30;;;;;;;1.27;0.93;;;15.90;99.90;;;;;;5062343;28;20488;-87
2021/09/17 07:48:57;;;;;;;2.03;0.90;;;15.90;99.90;;;;;;5068401;28;20442;-87
2021/09/17 07:51:24;;;;;;;1.00;0.90;;;15.80;99.90;;;;;;5064381;28;20449;-87
2021/09/17 07:53:51;;;;;;;4.23;3.27;;;16.10;99.90;;;;;;5061786;28;20476;-87
2021/09/17 07:56:18;;;;;;;34.77;27.97;;;15.60;99.90;;;;;;5061893;28;20552;-87
2021/09/17 07:58:45;;;;;;;1.40;1.30;;;15.90;99.90;;;;;;5064063;28;20840;-87
2021/09/17 08:01:11;;;;;;;0.80;0.80;;;16.00;99.90;;;;;;5062292;28;20438;-87
2021/09/17 08:03:38;;;;;;;1.73;0.90;;;15.90;99.90;;;;;;5065879;28;20469;-87
2021/09/17 08:06:06;;;;;;;1.10;0.90;;;15.80;99.90;;;;;;5061396;28;20473;-88
2021/09/17 08:08:32;;;;;;;1.00;0.90;;;16.10;99.90;;;;;;5061605;28;20442;-86
2021/09/17 08:11:00;;;;;;;1.43;0.90;;;16.00;99.90;;;;;;5062553;28;20477;-87
2021/09/17 08:13:27;;;;;;;1.10;0.80;;;16.20;99.90;;;;;;5064883;28;20476;-87
2021/09/17 08:15:54;;;;;;;1.47;0.80;;;16.00;99.90;;;;;;5064875;28;20512;-87
2021/09/17 08:18:20;;;;;;;2.13;0.70;;;15.90;99.90;;;;;;5060436;28;20493;-86
2021/09/17 08:20:49;;;;;;;1.83;1.27;;;15.60;99.90;;;;;;5067755;28;20454;-86
2021/09/17 08:23:18;;;;;;;2.50;1.00;;;16.30;99.90;;;;;;5064374;28;20528;-86
2021/09/17 08:25:45;;;;;;;1.83;0.60;;;16.50;99.90;;;;;;5060261;28;20848;-87
2021/09/17 08:28:13;;;;;;;0.90;0.77;;;16.30;99.90;;;;;;5059259;28;20435;-87
2021/09/17 08:30:39;;;;;;;2.90;1.40;;;15.90;99.90;;;;;;5057818;28;20833;-87
2021/09/17 08:33:06;;;;;;;0.90;0.80;;;16.40;99.90;;;;;;5059457;28;20446;-87
2021/09/17 08:35:33;;;;;;;1.20;0.70;;;16.40;99.90;;;;;;5057605;28;20529;-87
2021/09/17 08:37:59;;;;;;;0.80;0.70;;;16.50;99.90;;;;;;5059072;28;20450;-87
2021/09/17 08:40:28;;;;;;;0.73;0.60;;;15.80;99.90;;;;;;5058456;28;20472;-87
2021/09/17 08:42:55;;;;;;;2.33;0.87;;;16.50;99.90;;;;;;5058303;28;20462;-87
2021/09/17 08:45:23;;;;;;;1.20;0.60;;;16.20;99.90;;;;;;5058065;28;20462;-87
2021/09/17 08:47:50;;;;;;;1.30;0.70;;;16.10;99.90;;;;;;5057259;28;20520;-87
2021/09/17 08:50:17;;;;;;;0.73;0.70;;;16.40;99.90;;;;;;5058005;28;20450;-87
2021/09/17 08:52:43;;;;;;;0.90;0.70;;;15.90;99.90;;;;;;5057849;28;20496;-87
2021/09/17 08:55:11;;;;;;;1.37;0.80;;;15.50;99.90;;;;;;5057102;28;20461;-87
2021/09/17 08:57:38;;;;;;;1.40;0.80;;;16.50;99.90;;;;;;5057747;28;20508;-87
2021/09/17 09:00:05;;;;;;;1.97;1.00;;;16.50;99.90;;;;;;5057554;28;20457;-88
2021/09/17 09:02:33;;;;;;;1.13;0.87;;;16.50;99.90;;;;;;5057801;28;20474;-88
2021/09/17 09:05:01;;;;;;;1.43;0.90;;;16.30;99.90;;;;;;5065559;28;20456;-86
2021/09/17 09:07:30;;;;;;;1.20;0.80;;;16.40;99.90;;;;;;5076145;28;20484;-86
2021/09/17 09:10:05;;;;;;;1.83;1.07;;;16.30;99.90;;;;;;5063887;28;20740;-87
2021/09/17 09:12:32;;;;;;;2.30;0.77;;;16.40;99.90;;;;;;5065163;28;20438;-86
2021/09/17 09:15:12;;;;;;;1.00;0.67;;;16.10;99.90;;;;;;5078124;28;20441;-86
2021/09/17 09:17:41;;;;;;;1.23;0.70;;;15.80;99.90;;;;;;5076583;28;20449;-86
2021/09/17 09:20:24;;;;;;;3.27;0.63;;;16.50;99.90;;;;;;5077886;28;20431;-88
2021/09/17 09:23:05;;;;;;;1.33;0.60;;;16.30;99.90;;;;;;5080672;28;20447;-87
2021/09/17 09:25:31;;;;;;;0.90;0.70;;;16.40;99.90;;;;;;5080172;28;20539;-86
2021/09/17 09:28:11;;;;;;;3.37;1.87;;;16.60;99.90;;;;;;5076546;28;20500;-87
2021/09/17 09:30:38;;;;;;;0.73;0.73;;;16.50;99.90;;;;;;5063192;28;20442;-88
2021/09/17 09:33:31;;;;;;;2.17;1.27;;;16.70;99.90;;;;;;5061156;28;20520;-88
2021/09/17 09:36:00;;;;;;;0.60;0.60;;;16.30;99.90;;;;;;5067603;28;20528;-87
2021/09/17 09:38:35;;;;;;;2.70;0.70;;;16.70;99.90;;;;;;5076149;28;20454;-87
2021/09/17 09:41:04;;;;;;;1.73;0.70;;;16.20;99.90;;;;;;5068219;28;20442;-88
2021/09/17 09:43:33;;;;;;;2.30;0.80;;;16.20;99.90;;;;;;5063586;28;20438;-87
2021/09/17 09:46:28;;;;;;;4.50;0.90;;;15.80;99.90;;;;;;5063119;28;20465;-87
2021/09/17 09:49:09;;;;;;;0.90;0.60;;;16.60;99.90;;;;;;5062484;28;20434;-86
2021/09/17 09:51:38;;;;;;;4.57;1.20;;;15.80;99.90;;;;;;5072360;28;20501;-86
2021/09/17 09:54:07;;;;;;;1.60;0.80;;;16.20;99.90;;;;;;5070410;28;20446;-87
2021/09/17 09:56:35;;;;;;;2.43;0.90;;;15.90;99.90;;;;;;5063160;28;20507;-87
2021/09/17 09:59:04;;;;;;;0.87;0.73;;;16.30;99.90;;;;;;5061956;28;20471;-87
2021/09/17 10:01:33;;;;;;;2.50;0.80;;;16.10;99.90;;;;;;5061130;28;20454;-87
2021/09/17 10:04:02;;;;;;;4.13;1.00;;;16.20;99.90;;;;;;5059670;28;20450;-88
2021/09/17 10:06:31;;;;;;;1.10;0.77;;;16.00;99.90;;;;;;5060252;28;20818;-87
2021/09/17 10:08:58;;;;;;;2.30;1.20;;;16.40;99.90;;;;;;5062022;28;20446;-87
2021/09/17 10:11:25;;;;;;;1.30;0.80;;;15.90;99.90;;;;;;5061501;28;20801;-87
2021/09/17 10:13:56;;;;;;;1.00;0.90;;;16.00;99.90;;;;;;5061922;28;20498;-87
2021/09/17 10:16:24;;;;;;;1.10;1.00;;;16.10;99.90;;;;;;5063825;28;20452;-87
2021/09/17 10:18:52;;;;;;;1.83;0.80;;;15.70;99.90;;;;;;5066518;28;20446;-87
2021/09/17 10:21:51;;;;;;;2.13;0.90;;;16.10;99.90;;;;;;5069930;28;20457;-87
2021/09/17 10:24:48;;;;;;;1.00;0.63;;;16.30;99.90;;;;;;5081648;23;20474;-82
2021/09/17 10:42:19;;;;;;;2.90;1.20;;;18.30;99.90;;;;;;5039336;28;20442;-86
2021/09/17 10:45:41;;;;;;;0.70;0.70;;;15.90;99.90;;;;;;5049945;28;20520;-86
2021/09/17 10:48:31;;;;;;;1.80;0.77;;;16.60;99.90;;;;;;5041477;28;20517;-86
2021/09/17 10:51:33;;;;;;;1.20;1.00;;;16.50;99.90;;;;;;5040791;28;21005;-86
2021/09/17 11:01:01;;;;;;;2.10;0.87;;;16.50;99.90;;;;;;5037650;28;20442;-85
2021/09/17 11:04:10;;;;;;;3.47;0.70;;;16.40;99.90;;;;;;5040074;28;20447;-85
2021/09/17 11:06:56;;;;;;;2.97;0.70;;;18.30;99.90;;;;;;5035347;28;20459;-86
2021/09/17 11:09:49;;;;;;;1.07;0.90;;;17.50;99.90;;;;;;5041449;28;20432;-86
2021/09/17 11:12:36;;;;;;;0.97;0.73;;;16.50;99.90;;;;;;5041992;28;20435;-87
2021/09/17 11:15:58;;;;;;;1.87;1.00;;;16.60;99.90;;;;;;5041335;28;20474;-86
2021/09/17 11:19:07;;;;;;;0.80;0.70;;;16.40;99.90;;;;;;5034315;28;20448;-86
2021/09/17 11:34:28;;;;;;;1.47;1.00;;;16.50;99.90;;;;;;5035688;28;20435;-85
2021/09/17 11:49:27;;;;;;;1.00;0.80;;;17.60;99.90;;;;;;5050171;28;20458;-86
2021/09/17 11:52:43;;;;;;;1.13;1.03;;;16.40;99.90;;;;;;5037067;28;20551;-85
2021/09/17 12:04:31;;;;;;;1.00;0.90;;;16.50;99.90;;;;;;4969608;28;20572;-86
2021/09/17 12:07:16;;;;;;;1.00;0.90;;;16.50;99.90;;;;;;5038158;28;20450;-86
2021/09/17 12:13:02;;;;;;;0.80;0.80;;;16.40;99.90;;;;;;5033544;28;20497;-86
2021/09/17 12:16:21;;;;;;;1.13;0.90;;;16.50;99.90;;;;;;5036773;28;20804;-86
2021/09/17 12:42:07;;;;;;;1.27;1.17;;;18.60;99.90;;;;;;5001701;28;20486;-86
2021/09/17 12:54:26;;;;;;;1.00;0.87;;;16.90;99.90;;;;;;5048898;28;20451;-85
2021/09/17 12:57:42;;;;;;;3.80;0.77;;;17.10;99.90;;;;;;5056653;28;20470;-85
2021/09/17 13:00:48;;;;;;;2.77;1.13;;;16.90;99.90;;;;;;5051597;28;20461;-86
2021/09/17 13:03:50;;;;;;;3.33;0.60;;;16.90;99.90;;;;;;4991776;28;20479;-86
2021/09/17 13:06:17;;;;;;;0.70;0.70;;;;;;;;;;4996567;28;20820;-86
2021/09/17 13:12:23;;;;;;;1.07;0.80;;;16.80;99.90;;;;;;5004244;28;20899;-87
2021/09/17 13:15:15;;;;;;;0.70;0.70;;;17.00;99.90;;;;;;4995682;28;20484;-86
2021/09/17 13:18:28;;;;;;;0.90;0.70;;;16.80;99.90;;;;;;5011477;28;20590;-86
2021/09/17 13:24:39;;;;;;;1.00;0.93;;;16.80;99.90;;;;;;5037287;28;20443;-86
2021/09/17 13:31:01;;;;;;;1.63;0.80;;;16.70;99.90;;;;;;4594576;27;15045612;-86
2021/09/17 13:39:48;;;;;;;2.30;1.07;;;16.60;99.90;;;;;;5139112;28;20413;-86
2021/09/17 13:45:53;;;;;;;0.70;0.70;;;16.60;99.90;;;;;;5136758;27;20514;-87
2021/09/17 13:54:54;;;;;;;0.70;0.60;;;16.50;99.90;;;;;;5138892;27;20908;-87
2021/09/17 13:57:46;;;;;;;0.60;0.60;;;16.50;99.90;;;;;;5138997;28;20457;-86
2021/09/17 14:10:05;;;;;;;;;;;;;;;;;;;;;
2021/09/17 14:19:37;;;;;;;2.03;0.93;;;15.80;99.90;;;;;;5066607;28;20442;-86
2021/09/17 14:25:43;;;;;;;0.80;0.80;;;16.30;99.90;;;;;;5135031;27;20488;-86
2021/09/17 14:28:23;;;;;;;0.80;0.80;;;16.30;99.90;;;;;;5135634;28;20447;-86
2021/09/17 14:31:41;;;;;;;0.90;0.80;;;16.30;99.90;;;;;;5136349;28;20451;-86
2021/09/17 14:34:28;;;;;;;2.50;0.70;;;16.20;99.90;;;;;;5013506;28;20853;-85
2021/09/17 14:40:36;;;;;;;1.00;1.00;;;16.70;99.90;;;;;;5131299;28;20500;-86
2021/09/17 14:52:38;;;;;;;;;;;;;;;;;;;;;
2021/09/17 14:55:26;;;;;;;0.90;0.80;;;16.10;99.90;;;;;;5080960;28;20475;-86
2021/09/17 14:58:17;;;;;;;0.80;0.80;;;16.20;99.90;;;;;;5123123;28;20451;-86
2021/09/17 15:01:06;;;;;;;0.90;0.90;;;16.20;99.90;;;;;;5122982;28;20926;-86
2021/09/17 15:03:43;;;;;;;1.13;1.07;;;16.20;99.90;;;;;;5125187;28;20921;-86
2021/09/17 15:06:34;;;;;;;1.10;1.00;;;16.10;99.90;;;;;;5122119;28;20498;-86
2021/09/17 15:09:17;;;;;;;1.10;1.00;;;16.10;99.90;;;;;;5122012;28;20828;-86
2021/09/17 15:12:04;;;;;;;0.80;0.80;;;16.20;99.90;;;;;;5120939;28;20447;-86
2021/09/17 15:15:09;;;;;;;1.70;0.90;;;15.90;99.90;;;;;;5122696;28;20467;-86
2021/09/17 15:24:03;;;;;;;0.90;0.90;;;16.40;99.90;;;;;;5124551;28;20458;-85
2021/09/17 15:27:24;;;;;;;;;;;;;;;;;;;;;
2021/09/17 15:36:54;;;;;;;1.10;0.90;;;16.20;99.90;;;;;;5133222;28;20558;-85
2021/09/17 15:45:48;;;;;;;1.20;1.10;;;16.10;99.90;;;;;;5121606;28;20498;-86
2021/09/17 15:48:40;;;;;;;1.20;1.10;;;16.10;99.90;;;;;;5131018;28;20538;-86
2021/09/17 16:04:13;;;;;;;2.70;1.53;;;16.30;99.90;;;;;;4863945;29;20451;-86
2021/09/17 16:13:40;;;;;;;0.97;0.90;;;16.10;99.90;;;;;;4923011;29;20943;-86
2021/09/17 16:16:33;;;;;;;2.13;1.23;;;16.00;99.90;;;;;;4887543;29;20516;-86
2021/09/17 16:19:28;;;;;;;1.77;1.00;;;16.00;99.90;;;;;;5012205;28;20510;-86
2021/09/17 16:29:37;;;;;;;0.93;0.93;;;16.10;99.90;;;;;;4971328;28;20569;-87
2021/09/17 16:42:09;;;;;;;2.63;2.00;;;15.90;99.90;;;;;;4970975;28;20443;-87
2021/09/17 16:48:44;;;;;;;2.00;1.63;;;16.00;99.90;;;;;;5118042;28;20465;-87
2021/09/17 16:55:15;;;;;;;;;;;;;;;;;;;;;
2021/09/17 17:01:40;;;;;;;;;;;;;;;;;;;;;
2021/09/17 17:04:34;;;;;;;8.53;7.27;;;16.00;99.90;;;;;;5073302;28;20466;-87
2021/09/17 17:10:33;;;;;;;2.83;1.30;;;15.80;99.90;;;;;;5121097;28;20556;-86
2021/09/17 17:16:40;;;;;;;;;;;;;;;;;;;;;